createdAt,value
2024-05-09T00:02:15.970Z,20.55
2024-05-09T00:04:46.578Z,18.33
2024-05-09T00:07:17.159Z,21.80
2024-05-09T00:09:48.030Z,23.80
2024-05-09T00:12:21.317Z,29.70
2024-05-09T00:17:22.139Z,25.75
2024-05-09T00:19:52.671Z,25.30
2024-05-09T00:22:23.110Z,30.60
2024-05-09T00:24:53.492Z,32.67
2024-05-09T00:27:26.577Z,30.27
2024-05-09T00:29:57.044Z,31.50
2024-05-09T00:32:27.613Z,28.85
2024-05-09T00:34:58.172Z,18.80
2024-05-09T00:37:28.653Z,23.17
2024-05-09T00:39:59.065Z,23.58
2024-05-09T00:42:32.225Z,27.88
2024-05-09T00:45:02.576Z,21.15
2024-05-09T00:47:33.546Z,27.27
2024-05-09T00:50:09.769Z,20.83
2024-05-09T00:52:43.496Z,21.48
2024-05-09T00:55:13.960Z,13.05
2024-05-09T00:57:47.958Z,10.57
2024-05-09T01:00:26.810Z,13.02
2024-05-09T01:03:02.792Z,10.77
2024-05-09T01:05:34.927Z,17.40
2024-05-09T01:08:06.113Z,24.60
2024-05-09T01:10:36.875Z,24.98
2024-05-09T01:13:10.324Z,32.45
2024-05-09T01:18:13.875Z,19.77
2024-05-09T01:20:45.642Z,37.03
2024-05-09T01:23:18.988Z,32.33
2024-05-09T01:25:49.662Z,54.17
2024-05-09T01:28:20.186Z,47.17
2024-05-09T01:30:50.648Z,45.78
2024-05-09T01:33:21.220Z,30.60
2024-05-09T01:35:51.774Z,27.60
2024-05-09T01:38:24.948Z,36.72
2024-05-09T01:40:55.493Z,40.95
2024-05-09T01:43:26.039Z,41.65
2024-05-09T01:45:56.486Z,46.05
2024-05-09T01:48:27.076Z,48.30
2024-05-09T01:50:57.626Z,53.22
2024-05-09T01:53:30.871Z,64.80
2024-05-09T01:58:33.053Z,52.05
2024-05-09T02:01:03.650Z,43.28
2024-05-09T02:03:34.197Z,23.10
2024-05-09T02:06:04.935Z,56.17
2024-05-09T02:08:38.230Z,37.63
2024-05-09T02:13:39.429Z,103.13
2024-05-09T02:16:14.066Z,87.65
2024-05-09T02:18:44.655Z,53.95
2024-05-09T02:21:15.465Z,25.05
2024-05-09T02:23:48.499Z,101.63
2024-05-09T02:26:19.049Z,37.17
2024-05-09T02:28:49.526Z,21.55
2024-05-09T02:31:20.115Z,18.83
2024-05-09T02:33:48.224Z,37.75
2024-05-09T02:36:18.886Z,17.45
2024-05-09T02:38:49.292Z,15.10
2024-05-09T02:41:19.773Z,126.20
2024-05-09T02:43:47.626Z,197.95
2024-05-09T02:46:17.996Z,149.48
2024-05-09T02:48:46.021Z,111.35
2024-05-09T02:51:16.471Z,64.57
2024-05-09T02:53:44.295Z,71.63
2024-05-09T02:56:17.422Z,62.42
2024-05-09T02:58:45.320Z,69.43
2024-05-09T03:01:15.833Z,51.42
2024-05-09T03:03:45.489Z,105.35
2024-05-09T03:06:15.971Z,75.07
2024-05-09T03:08:45.125Z,63.00
2024-05-09T03:11:26.479Z,71.93
2024-05-09T03:13:55.124Z,39.67
2024-05-09T03:16:25.658Z,59.70
2024-05-09T03:18:54.769Z,188.07
2024-05-09T03:21:25.467Z,114.25
2024-05-09T03:23:53.362Z,126.88
2024-05-09T03:26:26.943Z,148.25
2024-05-09T03:28:54.848Z,94.75
2024-05-09T03:31:25.321Z,65.18
2024-05-09T03:33:53.314Z,97.38
2024-05-09T03:36:23.908Z,84.35
2024-05-09T03:38:54.291Z,51.83
2024-05-09T03:41:27.470Z,78.35
2024-05-09T03:43:58.050Z,75.38
2024-05-09T03:46:28.540Z,95.78
2024-05-09T03:48:57.440Z,91.75
2024-05-09T03:51:27.843Z,88.00
2024-05-09T03:53:55.641Z,94.38
2024-05-09T03:56:28.681Z,96.72
2024-05-09T03:58:57.506Z,81.13
2024-05-09T04:01:30.046Z,102.22
2024-05-09T04:03:58.159Z,113.00
2024-05-09T04:06:29.442Z,90.78
2024-05-09T04:08:57.352Z,128.63
2024-05-09T04:11:30.589Z,87.55
2024-05-09T04:16:28.769Z,112.22
2024-05-09T04:18:56.772Z,60.55
2024-05-09T04:21:27.203Z,174.20
2024-05-09T04:23:55.114Z,244.48
2024-05-09T04:26:25.655Z,156.20
2024-05-09T04:28:56.165Z,121.05
2024-05-09T04:31:26.624Z,173.55
2024-05-09T04:33:54.583Z,248.70
2024-05-09T04:36:25.096Z,211.27
2024-05-09T04:38:52.899Z,148.02
2024-05-09T04:41:23.656Z,109.88
2024-05-09T04:43:51.735Z,152.07
2024-05-09T04:46:24.763Z,110.22
2024-05-09T04:48:53.679Z,105.47
2024-05-09T04:51:24.192Z,97.00
2024-05-09T04:53:52.073Z,82.90
2024-05-09T04:56:22.563Z,56.30
2024-05-09T04:58:50.487Z,89.95
2024-05-09T05:01:21.068Z,81.68
2024-05-09T05:03:51.727Z,67.20
2024-05-09T05:06:22.672Z,55.17
2024-05-09T05:08:50.549Z,62.03
2024-05-09T05:11:21.142Z,53.40
2024-05-09T05:13:49.154Z,34.28
2024-05-09T05:16:19.565Z,41.58
2024-05-09T05:18:47.469Z,55.17
2024-05-09T05:21:20.806Z,43.63
2024-05-09T05:26:20.574Z,79.68
2024-05-09T05:28:48.519Z,56.28
2024-05-09T05:31:19.026Z,64.03
2024-05-09T05:33:48.643Z,65.00
2024-05-09T05:36:21.934Z,57.90
2024-05-09T05:38:49.917Z,64.05
2024-05-09T05:41:20.385Z,64.18
2024-05-09T05:43:48.282Z,139.13
2024-05-09T05:46:18.698Z,76.78
2024-05-09T05:48:46.613Z,79.00
2024-05-09T05:51:17.272Z,54.83
2024-05-09T05:53:47.927Z,55.35
2024-05-09T05:56:18.472Z,50.30
2024-05-09T05:58:46.374Z,51.33
2024-05-09T06:01:16.936Z,55.63
2024-05-09T06:03:44.969Z,50.33
2024-05-09T06:06:16.432Z,53.03
2024-05-09T06:08:44.407Z,50.22
2024-05-09T06:11:17.605Z,49.92
2024-05-09T06:13:45.429Z,51.95
2024-05-09T06:16:15.980Z,47.13
2024-05-09T06:18:43.894Z,42.90
2024-05-09T06:21:14.741Z,40.85
2024-05-09T06:23:46.109Z,39.13
2024-05-09T06:26:19.528Z,34.25
2024-05-09T06:31:17.481Z,34.63
2024-05-09T06:33:45.395Z,32.72
2024-05-09T06:36:16.209Z,33.92
2024-05-09T06:38:44.223Z,31.50
2024-05-09T06:41:14.664Z,32.20
2024-05-09T06:43:45.151Z,25.25
2024-05-09T06:46:15.701Z,26.83
2024-05-09T06:48:43.746Z,24.42
2024-05-09T06:51:14.284Z,26.40
2024-05-09T06:53:42.262Z,24.48
2024-05-09T06:56:12.913Z,23.48
2024-05-09T06:58:40.853Z,22.60
2024-05-09T07:01:13.942Z,24.35
2024-05-09T07:03:41.977Z,20.27
2024-05-09T07:06:12.565Z,22.02
2024-05-09T07:08:41.337Z,20.48
2024-05-09T07:11:11.970Z,20.05
2024-05-09T07:13:39.863Z,19.58
2024-05-09T07:16:13.069Z,19.70
2024-05-09T07:21:11.819Z,19.15
2024-05-09T07:23:42.490Z,20.02
2024-05-09T07:26:14.278Z,18.70
2024-05-09T07:28:42.839Z,18.23
2024-05-09T07:31:16.501Z,17.05
2024-05-09T07:33:44.502Z,14.68
2024-05-09T07:36:15.029Z,17.50
2024-05-09T07:38:45.590Z,15.75
2024-05-09T07:41:14.499Z,16.30
2024-05-09T07:43:45.180Z,16.13
2024-05-09T07:47:14.401Z,18.40
2024-05-09T07:54:13.401Z,15.50
2024-05-09T07:56:44.206Z,16.40
2024-05-09T07:59:12.255Z,16.45
2024-05-09T08:01:45.504Z,15.30
2024-05-09T08:04:13.551Z,16.20
2024-05-09T08:06:44.140Z,13.63
2024-05-09T08:09:16.769Z,13.90
2024-05-09T08:11:49.988Z,12.70
2024-05-09T08:14:17.921Z,13.85
2024-05-09T08:16:50.906Z,12.93
2024-05-09T08:19:18.909Z,13.18
2024-05-09T08:21:49.451Z,12.25
2024-05-09T08:24:17.190Z,13.00
2024-05-09T08:26:47.640Z,12.27
2024-05-09T08:29:15.559Z,10.68
2024-05-09T08:31:46.106Z,10.90
2024-05-09T08:34:17.020Z,13.10
2024-05-09T08:36:47.730Z,11.32
2024-05-09T08:39:15.771Z,12.23
2024-05-09T08:41:52.358Z,11.68
2024-05-09T08:44:21.218Z,11.45
2024-05-09T08:46:54.498Z,10.93
2024-05-09T08:49:26.476Z,10.52
2024-05-09T08:51:57.263Z,10.43
2024-05-09T08:54:25.222Z,10.85
2024-05-09T08:56:55.957Z,11.10
2024-05-09T08:59:34.047Z,12.40
2024-05-09T09:02:05.395Z,11.20
2024-05-09T09:04:40.536Z,10.88
2024-05-09T09:07:11.093Z,9.65
2024-05-09T09:09:43.657Z,10.65
2024-05-09T09:12:15.090Z,10.55
2024-05-09T09:14:42.903Z,11.20
2024-05-09T09:17:17.189Z,10.65
2024-05-09T09:19:47.780Z,10.98
2024-05-09T09:22:19.830Z,8.23
2024-05-09T09:24:47.708Z,9.80
2024-05-09T09:27:18.486Z,9.63
2024-05-09T09:29:46.234Z,11.30
2024-05-09T09:32:16.654Z,10.73
2024-05-09T09:34:44.745Z,10.48
2024-05-09T09:37:23.797Z,9.98
2024-05-09T09:39:51.967Z,10.00
2024-05-09T09:42:26.080Z,10.77
2024-05-09T09:45:03.791Z,11.00
2024-05-09T09:47:39.932Z,12.10
2024-05-09T09:50:14.283Z,11.35
2024-05-09T09:52:51.804Z,11.27
2024-05-09T09:55:22.012Z,10.88
2024-05-09T09:57:52.643Z,11.25
2024-05-09T10:00:27.272Z,12.07
2024-05-09T10:03:03.073Z,12.32
2024-05-09T10:05:33.833Z,12.07
2024-05-09T10:08:09.431Z,11.32
2024-05-09T10:10:37.413Z,11.05
2024-05-09T10:13:09.034Z,11.60
2024-05-09T10:15:45.460Z,11.50
2024-05-09T10:18:16.516Z,11.23
2024-05-09T10:20:45.407Z,12.30
2024-05-09T10:23:29.243Z,13.65
2024-05-09T10:25:58.295Z,13.15
2024-05-09T10:28:29.758Z,13.57
2024-05-09T10:31:07.804Z,13.50
2024-05-09T10:33:40.050Z,12.68
2024-05-09T10:36:14.352Z,14.07
2024-05-09T10:38:47.652Z,13.35
2024-05-09T10:41:16.814Z,12.93
2024-05-09T10:43:47.720Z,12.77
2024-05-09T10:46:16.501Z,11.77
2024-05-09T10:48:48.620Z,13.30
2024-05-09T10:51:18.725Z,12.95
2024-05-09T10:53:52.692Z,13.80
2024-05-09T10:56:20.548Z,14.45
2024-05-09T10:58:54.781Z,12.77
2024-05-09T11:01:22.944Z,13.07
2024-05-09T11:03:55.041Z,14.52
2024-05-09T11:06:23.423Z,15.18
2024-05-09T11:08:56.705Z,15.23
2024-05-09T11:11:25.190Z,15.38
2024-05-09T11:13:55.612Z,20.23
2024-05-09T11:16:24.560Z,20.13
2024-05-09T11:18:59.084Z,19.40
2024-05-09T11:21:27.338Z,19.98
2024-05-09T11:24:00.450Z,21.48
2024-05-09T11:26:29.689Z,19.65
2024-05-09T11:29:00.196Z,21.17
2024-05-09T11:31:28.212Z,19.10
2024-05-09T11:33:58.705Z,19.13
2024-05-09T11:36:26.578Z,18.98
2024-05-09T11:38:57.128Z,20.85
2024-05-09T11:41:27.602Z,19.85
2024-05-09T11:43:58.088Z,20.85
2024-05-09T11:46:26.056Z,20.85
2024-05-09T11:48:56.784Z,19.95
2024-05-09T11:51:24.581Z,19.65
2024-05-09T11:53:55.133Z,19.48
2024-05-09T11:56:23.133Z,19.10
2024-05-09T11:58:56.391Z,19.70
2024-05-09T12:01:27.555Z,18.25
2024-05-09T12:03:58.782Z,19.30
2024-05-09T12:06:26.928Z,19.65
2024-05-09T12:08:57.642Z,20.27
2024-05-09T12:11:25.564Z,19.08
2024-05-09T12:13:58.661Z,21.30
2024-05-09T12:16:26.775Z,19.70
2024-05-09T12:18:57.488Z,21.33
2024-05-09T12:21:25.342Z,19.73
2024-05-09T12:23:55.978Z,21.25
2024-05-09T12:26:23.909Z,20.63
2024-05-09T12:28:54.463Z,19.70
2024-05-09T12:31:25.088Z,20.85
2024-05-09T12:33:55.985Z,18.60
2024-05-09T12:36:23.936Z,21.10
2024-05-09T12:38:54.416Z,18.77
2024-05-09T12:41:22.200Z,19.45
2024-05-09T12:43:52.603Z,20.17
2024-05-09T12:46:20.622Z,20.50
2024-05-09T12:48:54.063Z,21.45
2024-05-09T12:51:22.130Z,21.95
2024-05-09T12:53:52.576Z,22.15
2024-05-09T12:56:20.547Z,23.85
2024-05-09T12:58:51.272Z,22.55
2024-05-09T13:01:19.127Z,23.00
2024-05-09T13:03:49.855Z,24.92
2024-05-09T13:06:20.623Z,24.63
2024-05-09T13:08:51.172Z,26.25
2024-05-09T13:11:19.226Z,27.20
2024-05-09T13:13:49.656Z,25.10
2024-05-09T13:16:17.700Z,24.90
2024-05-09T13:18:48.411Z,28.63
2024-05-09T13:21:16.362Z,26.70
2024-05-09T13:23:49.496Z,27.60
2024-05-09T13:26:17.544Z,27.83
2024-05-09T13:28:47.950Z,28.55
2024-05-09T13:31:15.818Z,28.33
2024-05-09T13:33:46.660Z,27.33
2024-05-09T13:36:14.636Z,27.65
2024-05-09T13:38:45.256Z,26.08
2024-05-09T13:41:15.764Z,27.88
2024-05-09T13:43:46.260Z,23.50
2024-05-09T13:46:14.235Z,23.25
2024-05-09T13:48:44.995Z,24.15
2024-05-09T13:51:12.866Z,24.00
2024-05-09T13:53:43.404Z,22.83
2024-05-09T13:56:12.820Z,24.48
2024-05-09T13:58:46.692Z,24.38
2024-05-09T14:01:14.691Z,24.95
2024-05-09T14:03:45.311Z,26.90
2024-05-09T14:06:13.436Z,25.25
2024-05-09T14:08:44.149Z,26.45
2024-05-09T14:11:13.118Z,25.15
2024-05-09T14:13:46.255Z,26.73
2024-05-09T14:16:14.489Z,26.92
2024-05-09T14:18:45.267Z,25.15
2024-05-09T14:21:13.219Z,24.73
2024-05-09T14:23:43.650Z,23.63
2024-05-09T14:26:11.721Z,24.00
2024-05-09T14:28:42.235Z,21.05
2024-05-09T14:31:12.913Z,20.60
2024-05-09T14:33:43.537Z,21.42
2024-05-09T14:36:12.098Z,23.20
2024-05-09T14:38:42.706Z,20.95
2024-05-09T14:41:13.249Z,19.13
2024-05-09T14:43:43.715Z,20.48
2024-05-09T14:46:14.383Z,18.60
2024-05-09T14:48:45.434Z,18.38
2024-05-09T14:51:13.684Z,17.50
2024-05-09T14:53:44.148Z,17.98
2024-05-09T14:56:12.156Z,17.23
2024-05-09T14:58:42.727Z,18.02
2024-05-09T15:01:10.557Z,17.60
2024-05-09T15:03:43.928Z,16.05
2024-05-09T15:06:12.186Z,15.80
2024-05-09T15:08:42.707Z,19.10
2024-05-09T15:11:10.715Z,17.83
2024-05-09T15:13:41.261Z,16.52
2024-05-09T15:16:09.212Z,18.23
2024-05-09T15:18:42.216Z,18.23
2024-05-09T15:21:14.178Z,16.38
2024-05-09T15:23:45.005Z,18.92
2024-05-09T15:26:13.072Z,19.42
2024-05-09T15:28:43.942Z,15.90
2024-05-09T15:31:11.779Z,18.27
2024-05-09T15:33:42.769Z,18.27
2024-05-09T15:36:13.545Z,17.10
2024-05-09T15:38:44.025Z,17.65
2024-05-09T15:41:13.279Z,17.75
2024-05-09T15:43:43.779Z,17.33
2024-05-09T15:46:11.883Z,18.13
2024-05-09T15:48:44.821Z,16.05
2024-05-09T15:51:15.593Z,15.20
2024-05-09T15:53:46.078Z,16.17
2024-05-09T15:56:13.997Z,16.95
2024-05-09T15:58:44.549Z,16.38
2024-05-09T16:01:14.487Z,15.65
2024-05-09T16:03:45.188Z,14.35
2024-05-09T16:06:16.234Z,15.30
2024-05-09T16:08:46.667Z,15.13
2024-05-09T16:11:17.054Z,16.58
2024-05-09T16:13:47.830Z,15.20
2024-05-09T16:16:16.011Z,14.02
2024-05-09T16:18:46.601Z,16.77
2024-05-09T16:21:17.088Z,15.57
2024-05-09T16:23:47.653Z,14.45
2024-05-09T16:26:15.610Z,14.48
2024-05-09T16:28:46.171Z,14.48
2024-05-09T16:31:14.213Z,16.25
2024-05-09T16:33:45.261Z,15.50
2024-05-09T16:36:13.440Z,15.43
2024-05-09T16:38:46.595Z,14.35
2024-05-09T16:41:15.574Z,14.35
2024-05-09T16:43:46.015Z,15.93
2024-05-09T16:46:14.528Z,15.13
2024-05-09T16:48:45.726Z,13.93
2024-05-09T16:51:13.795Z,13.55
2024-05-09T16:53:46.891Z,13.80
2024-05-09T16:56:14.864Z,14.52
2024-05-09T16:58:45.666Z,15.00
2024-05-09T17:01:13.665Z,12.95
2024-05-09T17:03:44.363Z,12.15
2024-05-09T17:06:12.398Z,13.48
2024-05-09T17:08:43.785Z,12.75
2024-05-09T17:11:15.572Z,12.70
2024-05-09T17:13:48.216Z,11.77
2024-05-09T17:16:18.872Z,12.38
2024-05-09T17:18:50.549Z,12.52
2024-05-09T17:21:18.918Z,12.52
2024-05-09T17:23:51.317Z,12.77
2024-05-09T17:26:22.030Z,12.52
2024-05-09T17:28:52.553Z,12.00
2024-05-09T17:31:20.439Z,12.55
2024-05-09T17:33:51.141Z,12.90
2024-05-09T17:36:19.946Z,11.90
2024-05-09T17:38:50.415Z,12.98
2024-05-09T17:41:18.276Z,13.88
2024-05-09T17:43:51.394Z,12.82
2024-05-09T17:46:19.450Z,13.10
2024-05-09T17:48:50.005Z,12.52
2024-05-09T17:51:17.841Z,12.13
2024-05-09T17:53:48.412Z,12.38
2024-05-09T17:56:16.323Z,11.63
2024-05-09T17:58:48.981Z,12.15
2024-05-09T18:01:19.734Z,12.20
2024-05-09T18:03:50.777Z,12.75
2024-05-09T18:06:18.822Z,13.52
2024-05-09T18:08:49.361Z,11.57
2024-05-09T18:11:17.636Z,13.18
2024-05-09T18:13:48.423Z,12.55
2024-05-09T18:16:19.277Z,13.82
2024-05-09T18:18:50.364Z,12.50
2024-05-09T18:21:18.283Z,13.30
2024-05-09T18:23:52.088Z,15.18
2024-05-09T18:26:20.152Z,15.30
2024-05-09T18:28:50.642Z,15.13
2024-05-09T18:31:21.184Z,16.65
2024-05-09T18:33:51.921Z,18.17
2024-05-09T18:36:20.308Z,16.52
2024-05-09T18:38:50.970Z,15.45
2024-05-09T18:41:20.488Z,17.10
2024-05-09T18:43:51.318Z,15.75
2024-05-09T18:46:21.836Z,17.23
2024-05-09T18:48:52.470Z,17.38
2024-05-09T18:51:21.237Z,18.27
2024-05-09T18:53:52.441Z,19.48
2024-05-09T18:56:20.216Z,18.50
2024-05-09T18:58:50.783Z,20.02
2024-05-09T19:01:18.733Z,19.27
2024-05-09T19:03:51.950Z,18.95
2024-05-09T19:06:22.771Z,18.58
2024-05-09T19:08:55.034Z,21.80
2024-05-09T19:11:22.890Z,19.65
2024-05-09T19:13:53.425Z,22.33
2024-05-09T19:16:21.481Z,20.60
2024-05-09T19:18:55.705Z,22.38
2024-05-09T19:21:23.673Z,22.27
2024-05-09T19:23:55.545Z,22.05
2024-05-09T19:26:23.622Z,22.90
2024-05-09T19:28:55.414Z,23.05
2024-05-09T19:31:23.505Z,24.63
2024-05-09T19:33:56.719Z,23.08
2024-05-09T19:38:54.998Z,24.77
2024-05-09T19:41:23.009Z,26.15
2024-05-09T19:43:53.449Z,23.60
2024-05-09T19:46:21.397Z,24.27
2024-05-09T19:48:52.170Z,26.52
2024-05-09T19:51:22.694Z,24.25
2024-05-09T19:53:55.130Z,25.55
2024-05-09T19:56:23.053Z,24.90
2024-05-09T19:58:54.162Z,24.45
2024-05-09T20:01:22.025Z,25.30
2024-05-09T20:03:53.124Z,25.95
2024-05-09T20:06:26.259Z,26.25
2024-05-09T20:11:26.628Z,26.73
2024-05-09T20:13:58.497Z,27.20
2024-05-09T20:16:26.377Z,27.83
2024-05-09T20:18:57.149Z,26.05
2024-05-09T20:21:27.721Z,27.27
2024-05-09T20:23:58.156Z,25.90
2024-05-09T20:26:28.115Z,26.27
2024-05-09T20:28:59.682Z,25.88
2024-05-09T20:31:27.601Z,26.85
2024-05-09T20:33:58.310Z,25.67
2024-05-09T20:36:28.763Z,26.63
2024-05-09T20:38:59.198Z,26.38
2024-05-09T20:41:27.703Z,27.55
2024-05-09T20:44:00.649Z,25.92
2024-05-09T20:46:28.625Z,29.25
2024-05-09T20:48:59.253Z,28.08
2024-05-09T20:51:30.547Z,28.20
2024-05-09T20:54:01.008Z,27.25
2024-05-09T20:56:28.812Z,27.88
2024-05-09T20:59:00.099Z,30.10
2024-05-09T21:01:27.954Z,28.58
2024-05-09T21:03:58.594Z,28.35
2024-05-09T21:06:26.455Z,30.00
2024-05-09T21:08:59.857Z,30.00
2024-05-09T21:11:27.641Z,28.25
2024-05-09T21:13:58.098Z,28.50
2024-05-09T21:16:26.014Z,30.65
2024-05-09T21:18:56.588Z,29.50
2024-05-09T21:21:24.465Z,30.15
2024-05-09T21:23:54.862Z,29.33
2024-05-09T21:26:25.639Z,29.70
2024-05-09T21:28:56.036Z,31.63
2024-05-09T21:31:23.903Z,29.60
2024-05-09T21:33:54.707Z,29.27
2024-05-09T21:36:22.757Z,28.85
2024-05-09T21:38:53.140Z,31.23
2024-05-09T21:41:21.393Z,29.52
2024-05-09T21:43:54.511Z,30.08
2024-05-09T21:46:22.412Z,29.88
2024-05-09T21:48:52.987Z,30.83
2024-05-09T21:51:20.863Z,31.05
2024-05-09T21:53:51.588Z,31.10
2024-05-09T21:56:19.372Z,32.53
2024-05-09T21:58:49.852Z,33.03
2024-05-09T22:01:20.390Z,31.70
2024-05-09T22:03:51.122Z,29.90
2024-05-09T22:06:19.120Z,30.00
2024-05-09T22:08:49.559Z,30.95
2024-05-09T22:11:17.387Z,33.50
2024-05-09T22:13:47.733Z,33.67
2024-05-09T22:16:15.556Z,35.53
2024-05-09T22:18:49.250Z,31.80
2024-05-09T22:21:17.231Z,35.63
2024-05-09T22:23:47.644Z,34.92
2024-05-09T22:26:15.497Z,32.03
2024-05-09T22:28:46.539Z,35.13
2024-05-09T22:31:14.408Z,37.65
2024-05-09T22:33:47.124Z,39.08
2024-05-09T22:36:18.392Z,39.65
2024-05-09T22:38:48.838Z,40.35
2024-05-09T22:41:16.660Z,41.00
2024-05-09T22:43:47.098Z,40.83
2024-05-09T22:46:17.661Z,39.60
2024-05-09T22:48:45.566Z,41.08
2024-05-09T22:51:16.217Z,41.00
2024-05-09T22:53:46.950Z,42.25
2024-05-09T22:56:17.871Z,41.35
2024-05-09T22:58:45.847Z,40.05
2024-05-09T23:01:17.739Z,42.60
2024-05-09T23:03:45.887Z,40.65
2024-05-09T23:06:16.439Z,41.20
2024-05-09T23:08:46.932Z,41.67
2024-05-09T23:11:17.806Z,42.30
2024-05-09T23:13:45.890Z,43.55
2024-05-09T23:16:16.477Z,43.83
2024-05-09T23:18:44.406Z,44.25
2024-05-09T23:21:15.016Z,40.85
2024-05-09T23:23:42.800Z,43.13
2024-05-09T23:26:15.975Z,43.55
2024-05-09T23:28:43.919Z,41.88
2024-05-09T23:31:14.407Z,44.88
2024-05-09T23:33:45.793Z,46.10
2024-05-09T23:36:16.630Z,45.35
2024-05-09T23:38:44.548Z,46.00
2024-05-09T23:41:17.543Z,47.28
2024-05-09T23:43:45.379Z,47.78
2024-05-09T23:46:15.910Z,48.60
2024-05-09T23:48:43.953Z,49.72
2024-05-09T23:51:14.404Z,50.00
2024-05-09T23:53:44.931Z,49.08
2024-05-09T23:56:21.553Z,51.80
2024-05-09T23:58:49.398Z,52.22
